Station: Smithton  

  Atmospheric Gas Attenuation - ITU Rec 676-11   ----------------- dB/100km -----------------
Date Time Temp RH % AH g/m3 Dew Point Wind Direction Speed kph Gust kph Barometer mB Rainfall Since 9am 24GHz 47GHz 76GHz 122GHz 134GHz 241GHz
08/05 22:10 10.9 79 7.86 7.4 24 30 1022.8 0 18.1 25.9 38.7 101.2 92.9 318.6
08/05 22:00 11 79 7.91 7.5 26 33 1022.8 0 18.2 25.9 38.8 101.6 93.4 320.6
08/05 21:50 11.1 78 7.86 7.4 26 28 1022.8 0 18.1 25.8 38.6 101.0 92.6 317.8
08/05 21:40 11.4 78 8.01 7.7 24 28 1022.7 0 18.4 26.0 39.0 102.2 94.3 323.6
08/05 21:30 11.5 79 8.16 8 19 28 1022.8 0 18.7 26.2 39.6 103.7 96.2 330.3
08/05 21:20 11.5 79 8.16 8 19 20 1022.9 0 18.7 26.2 39.6 103.7 96.2 330.4
08/05 21:10 11.6 78 8.11 7.9 15 19 1023 0 18.6 26.1 39.3 103.1 95.4 327.6
08/05 21:00 11.7 78 8.16 8 15 20 1022.9 0 18.7 26.2 39.5 103.5 95.9 329.5
08/05 20:50 11.6 78 8.11 7.9 13 15 1022.8 0 18.6 26.1 39.3 103.1 95.4 327.5
08/05 20:40 11.6 77 8 7.7 19 22 1022.8 0 18.4 25.9 38.9 101.9 93.9 322.4
08/05 20:30 11.7 77 8.05 7.8 19 24 1022.7 0 18.5 26.0 39.0 102.3 94.5 324.3
08/05 20:20 11.7 77 8.05 7.8 19 22 1022.7 0 18.5 26.0 39.0 102.3 94.5 324.3
08/05 20:10 11.8 78 8.21 8.1 22 24 1022.6 0 18.8 26.2 39.6 103.9 96.5 331.4
08/05 20:00 11.6 78 8.11 7.9 17 28 1022.7 0 18.6 26.1 39.3 103.0 95.4 327.5
08/05 19:50 11.7 78 8.16 8 17 19 1022.7 0 18.7 26.1 39.5 103.5 95.9 329.5
08/05 19:40 11.9 79 8.37 8.4 19 20 1022.7 0 19.2 26.4 40.2 105.5 98.5 338.5
08/05 19:30 11.8 80 8.42 8.5 19 24 1022.7 0 19.3 26.5 40.5 106.2 99.3 341.3
08/05 19:20 11.7 81 8.47 8.6 15 19 1022.5 0 19.4 26.7 40.8 106.8 100.1 344.1
08/05 19:10 11.7 81 8.47 8.6 20 24 1022.3 0 19.4 26.6 40.7 106.8 100.1 344.0
08/05 19:00 11.5 81 8.37 8.4 22 30 1022.1 0 19.2 26.5 40.4 106.0 99.0 340.1
08/05 18:50 11.5 82 8.47 8.5 20 20 1022.1 0 19.4 26.7 40.8 107.1 100.3 344.9
08/05 18:40 11.4 81 8.32 8.3 19 20 1022.1 0 19.1 26.5 40.3 105.5 98.4 338.2
08/05 18:30 11.8 80 8.42 8.5 19 24 1022 0 19.3 26.5 40.5 106.1 99.3 341.1
08/05 18:20 12.1 79 8.47 8.6 20 22 1021.9 0 19.4 26.5 40.5 106.2 99.5 342.2
08/05 18:10 12.2 79 8.53 8.7 26 33 1021.8 0 19.5 26.6 40.7 106.7 100.2 344.6
08/05 18:00 12.2 79 8.53 8.7 22 33 1021.7 0 19.5 26.6 40.7 106.7 100.2 344.5
08/05 17:50 12.1 80 8.58 8.8 17 19 1021.5 0 19.6 26.7 41.0 107.4 101.0 347.3
08/05 17:40 12.1 80 8.58 8.8 22 24 1021.3 0 19.6 26.7 40.9 107.4 101.0 347.2
08/05 17:30 12.2 79 8.53 8.7 19 28 1021.5 0 19.5 26.6 40.7 106.7 100.2 344.5
08/05 17:20 12.1 79 8.47 8.6 15 17 1021.3 0 19.4 26.5 40.5 106.2 99.5 342.0
08/05 17:10 12.2 78 8.42 8.5 22 26 1021 0 19.3 26.4 40.2 105.5 98.7 339.1
08/05 17:00 12.3 78 8.47 8.6 24 35 1020.9 0 19.4 26.4 40.4 105.9 99.2 341.0
08/05 16:50 12.2 78 8.42 8.5 24 32 1020.8 0 19.3 26.4 40.2 105.4 98.7 339.1
08/05 16:40 12.4 77 8.41 8.5 20 26 1020.6 0 19.2 26.3 40.1 105.0 98.2 337.7
08/05 16:30 12.8 78 8.74 9.1 26 35 1020.5 0 19.9 26.7 41.2 108.1 102.2 351.5
08/05 16:20 12.9 77 8.68 9 22 26 1020.5 0 19.8 26.6 40.9 107.3 101.2 348.2
08/05 16:10 13.1 78 8.9 9.4 20 22 1020.4 0 20.3 26.9 41.7 109.4 103.9 357.7
08/05 16:00 13.1 78 8.9 9.4 24 35 1020 0 20.3 26.8 41.7 109.4 103.9 357.5
08/05 15:50 12.9 78 8.79 9.2 33 39 1019.9 0 20.0 26.7 41.3 108.4 102.7 353.2
08/05 15:40 13.4 75 8.72 9.1 33 39 1019.8 0 19.9 26.5 40.8 107.0 101.1 347.7
08/05 15:30 13.6 73 8.59 8.9 32 43 1019.7 0 19.6 26.2 40.1 105.3 99.1 340.7
08/05 15:20 13.9 75 8.99 9.5 32 35 1019.7 0 20.4 26.7 41.6 109.2 104.0 358.1
08/05 15:10 13.4 75 8.72 9.1 39 44 1019.6 0 19.9 26.4 40.8 107.0 101.0 347.6
08/05 15:00 14.2 72 8.79 9.2 35 46 1019.5 0 20.0 26.3 40.6 106.6 100.9 347.3
08/05 14:50 14.3 76 9.34 10.1 28 37 1019.5 0 21.1 27.2 42.8 112.5 108.2 372.6
08/05 14:40 13.5 80 9.36 10.1 26 37 1019.5 0 21.2 27.5 43.3 113.8 109.6 377.4
08/05 14:30 13.3 80 9.24 9.9 32 43 1019.5 0 21.0 27.3 43.0 112.8 108.2 372.7
08/05 14:20 12.9 79 8.9 9.4 33 39 1019.5 0 20.3 26.9 41.8 109.6 104.1 358.3
08/05 14:10 14 72 8.68 9 32 37 1019.3 0 19.7 26.2 40.3 105.7 99.7 343.0
08/05 14:00 14.2 75 9.16 9.8 35 46 1019.4 0 20.8 26.9 42.1 110.6 105.9 364.6
08/05 13:50 14.4 73 9.02 9.6 39 48 1019.3 0 20.4 26.6 41.5 108.8 103.7 357.1
08/05 13:40 14.2 72 8.79 9.2 39 44 1019.2 0 20.0 26.3 40.6 106.6 100.9 347.2
08/05 13:30 14.4 74 9.15 9.8 32 46 1019.3 0 20.7 26.8 42.0 110.2 105.4 363.2
08/05 13:20 14.1 76 9.22 9.9 30 35 1019.3 0 20.9 27.0 42.4 111.4 106.8 367.8
08/05 13:10 13.6 76 8.94 9.5 37 44 1019.2 0 20.3 26.7 41.5 109.0 103.7 356.9
08/05 13:00 14.2 73 8.91 9.4 32 46 1019.2 0 20.2 26.5 41.1 107.9 102.5 352.8
08/05 12:50 14.1 75 9.1 9.7 33 41 1019.3 0 20.6 26.9 41.9 110.1 105.2 362.2
08/05 12:40 13.6 76 8.94 9.5 33 43 1019.3 0 20.3 26.7 41.6 109.0 103.7 357.0
08/05 12:30 14.1 77 9.35 10.1 30 43 1019.1 0 21.2 27.3 43.0 112.8 108.5 373.9
08/05 12:20 14.3 74 9.09 9.7 28 33 1019.2 0 20.6 26.8 41.8 109.7 104.8 360.8
08/05 12:10 14.4 75 9.27 10 30 32 1019.2 0 21.0 27.0 42.5 111.5 107.0 368.8
08/05 12:00 13.3 76 8.78 9.2 32 44 1019.1 0 20.0 26.6 41.0 107.7 101.9 350.7
08/05 11:50 14.3 75 9.21 9.9 32 35 1019.1 0 20.9 27.0 42.3 111.0 106.4 366.4
08/05 11:40 14.4 77 9.52 10.4 32 35 1019 0 21.5 27.4 43.5 114.2 110.4 380.5
08/05 11:30 13.4 82 9.53 10.4 30 37 1019 0 21.6 27.8 44.1 115.8 112.0 385.9
08/05 11:20 13.1 77 8.79 9.2 28 33 1019 0 20.0 26.6 41.2 108.1 102.3 352.1
08/05 11:10 13.7 75 8.88 9.4 22 26 1018.9 0 20.2 26.6 41.2 108.2 102.7 353.6
08/05 11:00 13.5 75 8.77 9.2 26 37 1018.8 0 20.0 26.5 40.9 107.3 101.5 349.3
08/05 10:50 13.1 75 8.56 8.8 28 32 1018.7 0 19.5 26.2 40.2 105.5 99.2 341.2
08/05 10:40 13.2 76 8.73 9.1 24 26 1018.6 0 19.9 26.5 40.9 107.2 101.3 348.7
08/05 10:30 13.6 72 8.47 8.7 33 46 1018.4 0 19.3 25.9 39.6 103.9 97.4 334.7
08/05 10:20 13.4 74 8.6 8.9 32 37 1018.2 0 19.6 26.2 40.2 105.5 99.3 341.6
08/05 10:10 12.8 75 8.4 8.5 30 37 1018.2 0 19.2 26.0 39.7 104.1 97.4 334.8
08/05 10:00 12.7 74 8.24 8.2 32 41 1018.2 0 18.9 25.8 39.1 102.5 95.4 327.8
08/05 09:50 13.2 72 8.27 8.3 35 39 1018 0 18.9 25.7 39.0 102.2 95.2 327.1
08/05 09:40 13.3 70 8.09 8 37 44 1017.8 0 18.5 25.4 38.2 100.1 92.7 318.3
08/05 09:30 12.9 74 8.34 8.4 32 44 1017.7 0 19.1 25.9 39.4 103.3 96.4 331.5
08/05 09:20 12.7 73 8.13 8 35 41 1017.5 0 18.6 25.6 38.6 101.3 93.9 322.5
08/05 09:10 12.6 75 8.3 8.3 26 28 1017.3 0 19.0 25.9 39.4 103.2 96.3 330.8
08/05 09:00 12.6 76 8.41 8.5 30 44 1017.1 0 19.2 26.1 39.8 104.4 97.7 335.9
08/05 08:50 12.4 77 8.41 8.5 24 30 1016.9 10.8 19.2 26.1 39.9 104.6 97.9 336.7
08/05 08:40 12.4 77 8.41 8.5 32 39 1016.6 10.8 19.2 26.1 39.9 104.6 97.9 336.6
08/05 08:30 12.3 77 8.36 8.4 37 50 1016.2 10.8 19.1 26.1 39.7 104.2 97.3 334.6
08/05 08:20 12.1 78 8.37 8.4 35 43 1015.8 10.8 19.2 26.1 39.8 104.5 97.7 335.8
08/05 08:10 12.1 78 8.37 8.4 37 41 1015.7 10.8 19.2 26.1 39.8 104.5 97.7 335.7
08/05 08:00 12.1 78 8.37 8.4 37 54 1015.5 10.8 19.2 26.1 39.8 104.5 97.7 335.7
08/05 07:50 12 78 8.31 8.3 37 43 1015.4 10.8 19.1 26.0 39.6 103.9 97.0 333.3
08/05 07:40 11.9 79 8.37 8.4 30 35 1015.2 10.8 19.2 26.1 39.9 104.7 97.9 336.5
08/05 07:30 12 79 8.42 8.5 30 43 1015.2 10.8 19.3 26.2 40.1 105.1 98.4 338.4
08/05 07:20 11.9 79 8.37 8.4 28 35 1014.9 10.8 19.2 26.1 39.9 104.7 97.9 336.4
08/05 07:10 11.9 80 8.47 8.6 28 41 1014.6 10.8 19.4 26.3 40.3 105.7 99.2 341.0
08/05 07:00 11.8 82 8.63 8.8 32 44 1014.4 10.8 19.8 26.6 41.0 107.6 101.5 349.0
08/05 06:50 11.5 83 8.57 8.7 26 30 1014.3 10.8 19.6 26.6 40.9 107.3 101.1 347.5
08/05 06:40 11.7 84 8.79 9.1 28 32 1014.3 10.8 20.1 26.9 41.7 109.5 103.8 357.1
08/05 06:30 11.4 85 8.73 9 28 44 1014.1 10.8 20.0 26.9 41.6 109.2 103.4 355.5
08/05 06:20 11.5 85 8.78 9.1 37 43 1014 10.8 20.1 26.9 41.8 109.6 103.9 357.4
08/05 06:10 11.5 84 8.68 8.9 28 32 1013.8 10.8 19.9 26.7 41.3 108.5 102.5 352.6
08/05 06:00 11.4 84 8.62 8.8 35 48 1013.5 10.8 19.7 26.6 41.1 107.9 101.8 350.1
08/05 05:50 11.4 85 8.73 9 46 54 1013.2 10.8 20.0 26.8 41.6 109.1 103.3 355.2
08/05 05:40 11.2 87 8.82 9.1 35 46 1013.1 10.8 20.2 27.0 42.0 110.4 104.8 360.5

Last Refresh: 08-May-2026 21:48:40

Bureau of Meteorology